Waterford, New York
Current Conditions -  °F | °C
As of 11:51 PM on Friday 31 Oct 2014 (Local Time) from KALB Reporting Station
Light Rain Light Rain  
Wind Chill: 42°   Ceiling: 5500
Heat Index: 45°   Visibility: 10mi
Dew Point: 36°   Wind: 6mph
Humidity: 71%   Direction: 360°N
Pressure: 29.98"   Gusts: NA
Location:  42.79°N, 73.68°W
Report Text: KALB 010351Z 36005KT 10SM -RA SCT042 OVC055 07/02 A2998 RMK AO2 SLP152 P0000 T00720022
Loading
Personal Weather Stations






























Interactive Weather Map
Tropical Storm Tracking
New forecast layout! Learn more

10-Day Weather Forecast

Advertisements
Track Severe Weather on mobile